Time;durP1;ratioP1;P1;durP2;ratioP2;P2;SDS_P1;SDS_P2;PMS_P1;PMS_P2;Temp;Humidity;BMP_temperature;BMP_pressure;BME280_temperature;BME280_humidity;BME280_pressure;Samples;Min_cycle;Max_cycle;Signal;HPM_P1;HPM_P2
2022/01/09 00:01:41;;;;;;;58.67;37.10;;;13.50;78.70;;;;;;5138049;28;20197;-31
2022/01/09 00:04:12;;;;;;;64.63;39.37;;;13.40;78.50;;;;;;5146057;28;20121;-28
2022/01/09 00:06:43;;;;;;;61.57;39.73;;;13.40;78.40;;;;;;5144775;28;20042;-30
2022/01/09 00:09:14;;;;;;;53.57;35.27;;;13.40;78.30;;;;;;5144641;28;20382;-30
2022/01/09 00:11:45;;;;;;;57.97;38.03;;;13.40;78.20;;;;;;5145874;28;20428;-29
2022/01/09 00:14:16;;;;;;;62.23;39.27;;;13.40;77.90;;;;;;5145702;28;20050;-28
2022/01/09 00:16:47;;;;;;;62.23;40.93;;;13.40;77.80;;;;;;5145824;28;20492;-28
2022/01/09 00:19:17;;;;;;;64.43;43.47;;;13.50;78.10;;;;;;5146601;28;20114;-30
2022/01/09 00:21:48;;;;;;;61.17;40.53;;;13.40;78.00;;;;;;5147522;28;20125;-28
2022/01/09 00:24:19;;;;;;;60.53;37.70;;;13.40;78.20;;;;;;5147877;28;20480;-31
2022/01/09 00:26:51;;;;;;;57.73;36.73;;;13.30;78.50;;;;;;5147592;28;20406;-30
2022/01/09 00:29:22;;;;;;;56.00;35.53;;;13.30;78.90;;;;;;5147751;28;20054;-31
2022/01/09 00:31:53;;;;;;;42.43;30.27;;;13.40;79.30;;;;;;5146354;28;20118;-29
2022/01/09 00:34:24;;;;;;;45.63;31.50;;;13.40;78.40;;;;;;5146513;28;20182;-30
2022/01/09 00:36:55;;;;;;;51.73;32.97;;;13.40;78.10;;;;;;5147411;28;20074;-30
2022/01/09 00:39:25;;;;;;;55.93;36.43;;;13.40;78.00;;;;;;5147805;28;20062;-31
2022/01/09 00:41:57;;;;;;;46.47;33.87;;;13.40;78.10;;;;;;5147682;28;20392;-29
2022/01/09 00:44:28;;;;;;;51.07;34.93;;;13.40;78.10;;;;;;5147665;28;20042;-29
2022/01/09 00:47:00;;;;;;;45.63;33.67;;;13.40;78.10;;;;;;5146284;28;20055;-30
2022/01/09 00:49:31;;;;;;;47.63;34.20;;;13.40;78.10;;;;;;5147135;28;20070;-31
2022/01/09 00:52:02;;;;;;;49.23;33.23;;;13.40;78.10;;;;;;5146703;28;20126;-30
2022/01/09 00:54:33;;;;;;;45.03;30.87;;;13.40;78.10;;;;;;5147309;28;20047;-30
2022/01/09 00:57:04;;;;;;;46.90;31.50;;;13.40;78.00;;;;;;5146109;28;20546;-29
2022/01/09 00:59:35;;;;;;;38.03;28.37;;;13.40;78.00;;;;;;5147178;28;20051;-29
2022/01/09 01:02:06;;;;;;;41.27;31.13;;;13.40;78.00;;;;;;5145625;28;20437;-31
2022/01/09 01:04:39;;;;;;;43.73;30.67;;;13.40;77.90;;;;;;5146783;28;20133;-29
2022/01/09 01:07:10;;;;;;;41.37;30.87;;;13.40;78.00;;;;;;5146950;28;20043;-31
2022/01/09 01:09:41;;;;;;;38.10;30.00;;;13.40;77.90;;;;;;5147002;28;20043;-30
2022/01/09 01:12:12;;;;;;;40.97;29.13;;;13.30;77.80;;;;;;5145727;28;20047;-29
2022/01/09 01:14:43;;;;;;;40.70;29.67;;;13.30;77.70;;;;;;5146189;28;20063;-28
2022/01/09 01:17:14;;;;;;;40.03;29.27;;;13.30;77.70;;;;;;5146879;28;20104;-31
2022/01/09 01:19:46;;;;;;;39.57;29.07;;;13.30;77.50;;;;;;5146050;28;20133;-29
2022/01/09 01:22:17;;;;;;;39.10;29.03;;;13.30;77.50;;;;;;5145534;28;20046;-29
2022/01/09 01:24:48;;;;;;;42.03;31.00;;;13.30;77.50;;;;;;5145282;28;20402;-29
2022/01/09 01:27:19;;;;;;;42.80;29.63;;;13.30;77.50;;;;;;5146473;28;20047;-29
2022/01/09 01:29:50;;;;;;;40.13;27.63;;;13.30;77.90;;;;;;5146243;28;20608;-28
2022/01/09 01:32:22;;;;;;;39.80;29.50;;;13.30;77.30;;;;;;5146576;28;20051;-29
2022/01/09 01:34:53;;;;;;;38.77;28.50;;;13.30;77.20;;;;;;5146639;28;20051;-30
2022/01/09 01:37:24;;;;;;;38.67;29.17;;;13.30;77.20;;;;;;5146510;28;20121;-31
2022/01/09 01:39:56;;;;;;;42.40;30.03;;;13.30;77.20;;;;;;5145185;28;20548;-31
2022/01/09 01:42:27;;;;;;;42.70;30.37;;;13.30;77.10;;;;;;5146352;28;20055;-29
2022/01/09 01:44:58;;;;;;;39.73;28.63;;;13.30;77.00;;;;;;5146554;28;20053;-31
2022/01/09 01:47:29;;;;;;;41.87;30.07;;;13.30;76.90;;;;;;5146406;28;20465;-30
2022/01/09 01:50:00;;;;;;;44.90;30.03;;;13.30;76.90;;;;;;5146650;28;20101;-31
2022/01/09 01:52:37;;;;;;;42.63;30.30;;;13.30;76.80;;;;;;5146884;28;20090;-29
2022/01/09 01:55:10;;;;;;;46.40;30.70;;;13.30;76.60;;;;;;5146004;28;20055;-30
2022/01/09 01:57:41;;;;;;;45.85;31.77;;;13.30;76.70;;;;;;5146468;28;20121;-29
2022/01/09 02:00:14;;;;;;;41.53;30.53;;;13.30;76.70;;;;;;5129907;28;20048;-31
2022/01/09 02:02:45;;;;;;;40.35;29.45;;;13.30;76.60;;;;;;5145239;28;20043;-30
2022/01/09 02:05:16;;;;;;;41.43;28.70;;;13.30;76.50;;;;;;5146305;28;20058;-31
2022/01/09 02:07:47;;;;;;;43.90;30.13;;;13.20;76.30;;;;;;5145661;28;20145;-31
2022/01/09 02:10:18;;;;;;;39.83;29.07;;;13.30;76.30;;;;;;5129037;28;20067;-30
2022/01/09 02:12:51;;;;;;;40.60;29.20;;;13.20;76.20;;;;;;5145709;28;20089;-30
2022/01/09 02:15:32;;;;;;;37.50;27.97;;;13.30;76.10;;;;;;5129572;28;20050;-30
2022/01/09 02:18:08;;;;;;;39.90;29.27;;;13.20;75.90;;;;;;5146078;28;20058;-29
2022/01/09 02:20:39;;;;;;;38.87;29.80;;;13.20;76.10;;;;;;5146529;28;20042;-31
2022/01/09 02:23:10;;;;;;;42.57;32.47;;;13.20;76.60;;;;;;5144971;28;20047;-31
2022/01/09 02:25:42;;;;;;;40.43;30.70;;;13.20;76.90;;;;;;5144737;28;20507;-29
2022/01/09 02:28:14;;;;;;;36.10;28.63;;;13.20;76.80;;;;;;5146069;28;20085;-29
2022/01/09 02:30:45;;;;;;;38.67;28.30;;;13.20;76.50;;;;;;5144915;28;20386;-30
2022/01/09 02:33:16;;;;;;;39.80;28.73;;;13.20;76.20;;;;;;5145260;28;20042;-29
2022/01/09 02:35:49;;;;;;;41.20;29.67;;;13.20;76.00;;;;;;5145946;28;20051;-29
2022/01/09 02:38:20;;;;;;;40.22;29.42;;;13.30;76.00;;;;;;5145801;28;20062;-30
2022/01/09 02:40:52;;;;;;;40.60;27.87;;;13.30;75.70;;;;;;5146603;28;20043;-31
2022/01/09 02:43:23;;;;;;;39.47;29.03;;;13.20;75.50;;;;;;5149185;28;20122;-29
2022/01/09 02:46:00;;;;;;;39.33;27.40;;;13.30;75.40;;;;;;5149573;28;20046;-29
2022/01/09 02:48:35;;;;;;;41.57;29.77;;;13.20;75.30;;;;;;5148706;28;20055;-29
2022/01/09 02:51:13;;;;;;;42.80;30.33;;;13.20;75.30;;;;;;5149622;28;20047;-30
2022/01/09 02:53:47;;;;;;;40.87;29.40;;;13.20;75.20;;;;;;5132795;28;20138;-31
2022/01/09 02:56:18;;;;;;;37.77;28.83;;;13.20;74.90;;;;;;5149417;28;20053;-30
2022/01/09 02:58:49;;;;;;;38.17;28.63;;;13.20;74.80;;;;;;5149391;28;20445;-31
2022/01/09 03:01:20;;;;;;;38.80;28.60;;;13.20;74.80;;;;;;5148223;28;20070;-30
2022/01/09 03:03:51;;;;;;;37.50;27.87;;;13.20;74.80;;;;;;5149979;28;20117;-31
2022/01/09 03:06:22;;;;;;;38.83;29.67;;;13.20;74.70;;;;;;5148204;28;20130;-31
2022/01/09 03:08:55;;;;;;;42.87;33.30;;;13.20;74.60;;;;;;5149433;28;20392;-30
2022/01/09 03:11:26;;;;;;;41.42;31.65;;;13.20;74.60;;;;;;5149161;28;20138;-29
2022/01/09 03:13:57;;;;;;;38.67;30.70;;;13.20;74.60;;;;;;5147742;28;20054;-29
2022/01/09 03:16:28;;;;;;;37.77;30.03;;;13.20;74.60;;;;;;5149177;28;20102;-30
2022/01/09 03:18:59;;;;;;;36.83;27.87;;;13.20;74.30;;;;;;5149231;28;20125;-30
2022/01/09 03:21:29;;;;;;;36.47;28.17;;;13.20;74.20;;;;;;5148426;28;20141;-29
2022/01/09 03:24:01;;;;;;;40.23;29.50;;;13.20;74.20;;;;;;5148748;28;20122;-30
2022/01/09 03:26:32;;;;;;;39.17;29.90;;;13.20;74.20;;;;;;5148239;28;20122;-29
2022/01/09 03:29:03;;;;;;;36.40;27.97;;;13.20;74.10;;;;;;5147831;28;20523;-30
2022/01/09 03:31:34;;;;;;;37.97;28.63;;;13.20;74.10;;;;;;5148917;28;20400;-29
2022/01/09 03:34:05;;;;;;;37.20;28.63;;;13.20;74.10;;;;;;5148467;28;20054;-30
2022/01/09 03:36:36;;;;;;;37.93;28.10;;;13.20;73.90;;;;;;5147409;28;20400;-30
2022/01/09 03:39:07;;;;;;;37.17;28.20;;;13.20;73.80;;;;;;5147460;28;20482;-31
2022/01/09 03:41:38;;;;;;;35.67;28.27;;;13.20;73.90;;;;;;5147590;28;20085;-31
2022/01/09 03:44:09;;;;;;;38.53;28.70;;;13.20;73.80;;;;;;5148960;28;20117;-30
2022/01/09 03:46:40;;;;;;;36.27;27.97;;;13.10;74.00;;;;;;5148541;28;20549;-31
2022/01/09 03:49:11;;;;;;;34.30;28.63;;;13.10;74.70;;;;;;5147230;28;20485;-31
2022/01/09 03:51:44;;;;;;;35.70;27.03;;;13.10;74.90;;;;;;5148525;28;20126;-29
2022/01/09 03:54:16;;;;;;;39.40;29.77;;;13.10;74.80;;;;;;5147743;28;20477;-31
2022/01/09 03:56:47;;;;;;;37.63;27.67;;;13.10;74.50;;;;;;5148494;28;20094;-28
2022/01/09 03:59:18;;;;;;;36.67;28.47;;;13.10;74.30;;;;;;5148284;28;20117;-30
2022/01/09 04:01:50;;;;;;;38.93;29.07;;;13.10;74.20;;;;;;5148154;28;20397;-30
2022/01/09 04:04:21;;;;;;;37.27;28.60;;;13.10;74.10;;;;;;5148595;28;20050;-30
2022/01/09 04:06:52;;;;;;;35.37;27.73;;;13.10;73.80;;;;;;5148152;28;20046;-29
2022/01/09 04:09:38;;;;;;;34.83;27.87;;;13.10;73.90;;;;;;5130917;28;20548;-31
2022/01/09 04:12:16;;;;;;;34.87;26.77;;;13.10;73.80;;;;;;5147905;28;20460;-30
2022/01/09 04:14:48;;;;;;;35.77;27.53;;;13.20;73.80;;;;;;5146891;28;20058;-31
2022/01/09 04:17:37;;;;;;;33.13;25.23;;;13.10;73.60;;;;;;5148019;28;20050;-30
2022/01/09 04:20:09;;;;;;;33.70;25.87;;;13.10;73.50;;;;;;5147910;28;20081;-31
2022/01/09 04:22:40;;;;;;;37.40;26.57;;;13.20;73.50;;;;;;5146789;28;20093;-29
2022/01/09 04:25:11;;;;;;;37.13;26.73;;;13.10;73.40;;;;;;5148368;28;20051;-31
2022/01/09 04:27:42;;;;;;;35.93;27.40;;;13.10;73.30;;;;;;5146623;28;20053;-29
2022/01/09 04:30:14;;;;;;;35.83;26.13;;;13.10;73.20;;;;;;5146556;28;20051;-31
2022/01/09 04:32:44;;;;;;;36.47;27.13;;;13.10;73.20;;;;;;5146990;28;20102;-29
2022/01/09 04:35:16;;;;;;;39.70;28.77;;;13.10;73.20;;;;;;5148199;28;20050;-31
2022/01/09 04:37:48;;;;;;;44.30;32.93;;;13.10;73.10;;;;;;5130243;28;20081;-30
2022/01/09 04:40:20;;;;;;;50.42;36.05;;;13.10;73.10;;;;;;5147400;28;20051;-30
2022/01/09 04:42:57;;;;;;;46.03;34.27;;;13.10;73.00;;;;;;5146130;28;20405;-29
2022/01/09 04:45:29;;;;;;;50.30;37.63;;;13.10;73.00;;;;;;5147540;28;20393;-30
2022/01/09 04:48:03;;;;;;;45.43;31.87;;;13.10;73.10;;;;;;5147324;28;20077;-31
2022/01/09 04:50:36;;;;;;;40.63;30.03;;;13.10;72.90;;;;;;5147359;28;20045;-30
2022/01/09 04:53:08;;;;;;;40.45;29.95;;;13.10;72.80;;;;;;5147283;28;20039;-29
2022/01/09 04:55:41;;;;;;;41.47;30.95;;;13.10;72.80;;;;;;5147864;28;20126;-29
2022/01/09 04:58:12;;;;;;;38.33;30.88;;;13.10;72.90;;;;;;5145861;28;20074;-31
2022/01/09 05:00:44;;;;;;;39.87;31.23;;;13.10;72.90;;;;;;5147224;28;20089;-31
2022/01/09 05:03:17;;;;;;;39.87;29.90;;;13.00;73.00;;;;;;5147224;28;20162;-31
2022/01/09 05:05:48;;;;;;;38.87;29.37;;;13.00;74.00;;;;;;5147047;28;20090;-30
2022/01/09 05:08:19;;;;;;;65.07;46.43;;;13.00;74.00;;;;;;5147224;28;20050;-29
2022/01/09 05:10:50;;;;;;;56.13;44.00;;;13.00;73.70;;;;;;5147353;28;20043;-29
2022/01/09 05:13:21;;;;;;;50.13;42.20;;;13.10;73.40;;;;;;5146604;28;20055;-29
2022/01/09 05:15:52;;;;;;;43.90;32.07;;;13.10;73.20;;;;;;5128954;28;20081;-29
2022/01/09 05:18:23;;;;;;;44.50;33.30;;;13.10;73.10;;;;;;5147323;28;20046;-29
2022/01/09 05:20:54;;;;;;;40.07;33.07;;;13.10;72.90;;;;;;5147202;28;20043;-31
2022/01/09 05:23:25;;;;;;;43.20;35.57;;;13.10;72.70;;;;;;5146839;28;20039;-29
2022/01/09 05:25:56;;;;;;;108.73;86.80;;;13.10;72.60;;;;;;5146802;28;20074;-29
2022/01/09 05:28:27;;;;;;;65.70;58.87;;;13.00;72.70;;;;;;5146693;28;20081;-30
2022/01/09 05:30:58;;;;;;;45.73;40.67;;;13.00;73.20;;;;;;5145553;28;20043;-30
2022/01/09 05:33:29;;;;;;;41.33;31.73;;;13.00;73.10;;;;;;5146853;28;20050;-29
2022/01/09 05:36:00;;;;;;;41.87;31.83;;;13.00;73.10;;;;;;5146880;28;20055;-30
2022/01/09 05:38:31;;;;;;;44.27;32.40;;;13.00;73.10;;;;;;5146714;28;20125;-29
2022/01/09 05:41:02;;;;;;;41.43;31.57;;;13.00;73.20;;;;;;5146681;28;20049;-30
2022/01/09 05:43:33;;;;;;;44.73;33.97;;;12.90;73.20;;;;;;5145297;28;20046;-31
2022/01/09 05:46:04;;;;;;;44.30;31.57;;;12.90;73.10;;;;;;5146721;28;20074;-30
2022/01/09 05:48:35;;;;;;;43.10;32.40;;;12.90;73.20;;;;;;5146242;28;20074;-29
2022/01/09 05:51:06;;;;;;;45.43;35.60;;;12.90;73.30;;;;;;5146570;28;20047;-30
2022/01/09 05:53:37;;;;;;;43.03;33.57;;;12.90;73.30;;;;;;5146374;28;20444;-29
2022/01/09 05:56:08;;;;;;;49.30;37.23;;;12.90;73.30;;;;;;5145322;28;20046;-31
2022/01/09 05:58:39;;;;;;;53.80;37.20;;;12.90;73.40;;;;;;5145282;28;20573;-29
2022/01/09 06:01:10;;;;;;;53.03;38.40;;;12.80;73.50;;;;;;5146414;28;20069;-29
2022/01/09 06:03:41;;;;;;;50.23;37.27;;;12.80;73.30;;;;;;5146484;28;20047;-31
2022/01/09 06:06:12;;;;;;;49.83;37.87;;;12.80;73.30;;;;;;5144885;28;20126;-30
2022/01/09 06:08:43;;;;;;;50.90;37.93;;;12.80;73.30;;;;;;5146005;28;20053;-30
2022/01/09 06:11:14;;;;;;;55.70;38.77;;;12.80;73.30;;;;;;5129175;28;20047;-31
2022/01/09 06:13:45;;;;;;;51.00;37.40;;;12.80;73.30;;;;;;5144716;28;20117;-30
2022/01/09 06:16:16;;;;;;;51.00;37.83;;;12.80;73.40;;;;;;5147518;28;20069;-28
2022/01/09 06:18:47;;;;;;;53.80;37.77;;;12.80;73.40;;;;;;5148395;28;20042;-31
2022/01/09 06:21:18;;;;;;;48.83;36.90;;;12.80;73.40;;;;;;5128912;29;20058;-29
2022/01/09 06:23:49;;;;;;;52.40;38.73;;;12.80;73.50;;;;;;5130167;29;20478;-30
2022/01/09 06:26:20;;;;;;;48.60;37.27;;;12.80;73.40;;;;;;5130214;29;20083;-29
2022/01/09 06:28:51;;;;;;;52.70;39.33;;;12.70;73.40;;;;;;5129996;28;20039;-30
2022/01/09 06:31:22;;;;;;;51.77;38.50;;;12.70;73.40;;;;;;5129963;29;20162;-30
2022/01/09 06:33:53;;;;;;;55.10;37.83;;;12.80;73.40;;;;;;5131121;28;20130;-30
2022/01/09 06:36:24;;;;;;;55.57;38.67;;;12.70;73.30;;;;;;5138781;28;20043;-29
2022/01/09 06:38:55;;;;;;;54.60;40.33;;;12.70;73.20;;;;;;5135378;28;20464;-28
2022/01/09 06:41:26;;;;;;;54.07;39.87;;;12.80;73.50;;;;;;5142894;28;20050;-30
2022/01/09 06:43:57;;;;;;;57.27;42.23;;;12.80;73.50;;;;;;5131253;28;20051;-30
2022/01/09 06:46:28;;;;;;;53.77;39.23;;;12.80;73.20;;;;;;5141457;28;20045;-30
2022/01/09 06:48:59;;;;;;;55.50;39.97;;;12.90;73.10;;;;;;5144081;28;20042;-30
2022/01/09 06:51:30;;;;;;;66.27;44.27;;;12.90;73.00;;;;;;5142222;28;20094;-29
2022/01/09 06:54:01;;;;;;;66.73;44.30;;;12.90;72.90;;;;;;5130713;28;20496;-30
2022/01/09 06:56:32;;;;;;;62.03;43.00;;;13.00;72.90;;;;;;5147365;28;20411;-29
2022/01/09 06:59:03;;;;;;;55.63;41.93;;;12.90;72.60;;;;;;5148552;28;20047;-30
2022/01/09 07:01:34;;;;;;;54.73;40.93;;;13.00;72.70;;;;;;5132259;28;20447;-28
2022/01/09 07:04:05;;;;;;;57.83;40.93;;;13.00;72.80;;;;;;5149514;28;20118;-30
2022/01/09 07:06:36;;;;;;;57.83;41.57;;;13.10;72.50;;;;;;5149368;28;20038;-28
2022/01/09 07:09:07;;;;;;;56.47;42.37;;;13.10;72.30;;;;;;5148282;28;20508;-30
2022/01/09 07:11:38;;;;;;;59.00;44.97;;;11.60;73.60;;;;;;5149030;28;20078;-31
2022/01/09 07:14:09;;;;;;;63.30;47.13;;;10.10;76.70;;;;;;5149233;28;20082;-29
2022/01/09 07:16:40;;;;;;;;;;;9.30;78.50;;;;;;5148827;28;20485;-28
2022/01/09 07:19:11;;;;;;;;;;;8.90;79.80;;;;;;5149578;28;19922;-30
2022/01/09 07:21:42;;;;;;;;;;;8.70;80.90;;;;;;5148538;28;20016;-29
2022/01/09 07:24:13;;;;;;;;;;;8.50;81.30;;;;;;5149571;28;19922;-27
2022/01/09 07:26:44;;;;;;;75.50;51.33;;;8.30;81.70;;;;;;5148799;28;20364;-28
2022/01/09 07:29:14;;;;;;;72.63;50.20;;;8.20;82.20;;;;;;5148162;28;20054;-29
2022/01/09 07:31:46;;;;;;;72.40;49.83;;;8.00;82.50;;;;;;5148867;28;20051;-28
2022/01/09 07:34:20;;;;;;;72.03;48.47;;;7.90;82.70;;;;;;5149206;28;20053;-29
2022/01/09 07:36:51;;;;;;;71.97;51.00;;;7.80;83.00;;;;;;5148518;28;20058;-29
2022/01/09 07:39:22;;;;;;;69.87;49.80;;;7.80;83.30;;;;;;5148413;28;20039;-30
2022/01/09 07:41:53;;;;;;;71.90;51.07;;;7.70;83.50;;;;;;5147264;28;20489;-30
2022/01/09 07:44:24;;;;;;;69.67;47.13;;;7.70;83.60;;;;;;5148698;28;20052;-29
2022/01/09 07:46:55;;;;;;;71.80;48.17;;;7.60;84.00;;;;;;5147496;28;20177;-27
2022/01/09 07:49:26;;;;;;;66.50;45.90;;;7.50;84.80;;;;;;5148734;28;20167;-30
2022/01/09 07:51:57;;;;;;;74.50;48.90;;;7.50;84.40;;;;;;5148021;28;20043;-28
2022/01/09 07:54:28;;;;;;;77.27;51.53;;;7.50;84.60;;;;;;5147585;28;20042;-27
2022/01/09 07:56:59;;;;;;;66.70;50.63;;;7.40;84.70;;;;;;5148753;28;20438;-29
2022/01/09 07:59:30;;;;;;;70.17;47.80;;;7.40;85.00;;;;;;5148271;28;20061;-28
2022/01/09 08:02:01;;;;;;;73.73;49.00;;;7.40;85.10;;;;;;5148430;28;20054;-31
2022/01/09 08:04:32;;;;;;;69.43;48.03;;;7.50;84.80;;;;;;5146998;28;20057;-28
2022/01/09 08:07:04;;;;;;;68.00;46.93;;;7.60;84.90;;;;;;5148136;28;20122;-29
2022/01/09 08:09:36;;;;;;;63.20;46.73;;;7.70;84.80;;;;;;5148179;28;20611;-30
2022/01/09 08:12:10;;;;;;;67.30;46.43;;;7.80;84.80;;;;;;5146778;28;20043;-29
2022/01/09 08:14:42;;;;;;;67.67;50.17;;;7.90;84.30;;;;;;5147867;28;20133;-29
2022/01/09 08:17:13;;;;;;;72.83;51.10;;;8.00;84.30;;;;;;5148434;28;20042;-30
2022/01/09 08:19:44;;;;;;;72.77;52.47;;;8.00;84.20;;;;;;5146759;28;20505;-27
2022/01/09 08:22:15;;;;;;;70.10;48.60;;;8.10;84.40;;;;;;5147277;28;20092;-28
2022/01/09 08:24:47;;;;;;;66.60;47.73;;;8.00;84.40;;;;;;5146686;28;20046;-30
2022/01/09 08:27:18;;;;;;;67.90;47.53;;;8.00;84.60;;;;;;5148004;28;20057;-29
2022/01/09 08:29:49;;;;;;;68.63;47.90;;;8.00;85.10;;;;;;5146900;28;20388;-28
2022/01/09 08:32:20;;;;;;;63.93;47.07;;;8.00;84.90;;;;;;5146989;28;20047;-30
2022/01/09 08:34:51;;;;;;;69.70;48.40;;;7.90;85.00;;;;;;5147937;28;20392;-29
2022/01/09 08:37:22;;;;;;;65.70;47.60;;;7.90;85.10;;;;;;5146521;28;20480;-28
2022/01/09 08:39:53;;;;;;;67.83;46.20;;;7.90;84.70;;;;;;5146974;28;20046;-30
2022/01/09 08:42:24;;;;;;;67.13;47.23;;;7.80;85.10;;;;;;5147330;28;20497;-30
2022/01/09 08:44:55;;;;;;;65.17;48.20;;;7.90;85.60;;;;;;5146159;28;20082;-29
2022/01/09 08:47:26;;;;;;;64.03;44.80;;;7.80;85.60;;;;;;5146938;28;20101;-29
2022/01/09 08:49:57;;;;;;;61.60;44.93;;;7.80;85.60;;;;;;5146835;28;20043;-30
2022/01/09 08:52:28;;;;;;;65.47;44.57;;;7.80;86.00;;;;;;5146518;28;20141;-27
2022/01/09 08:54:59;;;;;;;76.13;48.07;;;7.70;85.90;;;;;;5143762;28;20600;-29
2022/01/09 08:57:30;;;;;;;75.27;50.33;;;7.70;86.20;;;;;;5128347;28;20061;-29
2022/01/09 09:00:03;;;;;;;72.63;49.40;;;7.70;86.20;;;;;;5145082;28;20444;-29
2022/01/09 09:02:36;;;;;;;65.45;46.13;;;7.70;86.50;;;;;;5144668;28;20081;-28
2022/01/09 09:05:07;;;;;;;66.83;45.27;;;7.70;86.10;;;;;;5146106;28;20501;-28
2022/01/09 09:07:38;;;;;;;63.60;45.80;;;7.70;86.50;;;;;;5146910;28;20085;-28
2022/01/09 09:10:09;;;;;;;67.60;47.40;;;7.70;87.00;;;;;;5129090;28;20058;-27
2022/01/09 09:12:40;;;;;;;102.63;67.90;;;7.70;86.80;;;;;;5146927;28;20378;-30
2022/01/09 09:15:12;;;;;;;190.00;128.23;;;7.70;86.70;;;;;;5145334;28;20062;-29
2022/01/09 09:17:43;;;;;;;373.37;236.17;;;7.60;86.80;;;;;;5145400;28;20491;-28
2022/01/09 09:20:14;;;;;;;253.67;149.97;;;7.60;87.50;;;;;;5146803;28;20051;-30
2022/01/09 09:22:45;;;;;;;154.67;87.43;;;8.00;87.70;;;;;;5146641;28;20058;-31
2022/01/09 09:25:16;;;;;;;100.63;61.27;;;8.60;86.40;;;;;;5146878;28;20046;-29
2022/01/09 09:27:47;;;;;;;97.63;58.67;;;9.20;85.00;;;;;;5145425;28;20066;-29
2022/01/09 09:30:18;;;;;;;80.33;51.70;;;9.70;84.30;;;;;;5146559;28;20070;-29
2022/01/09 09:32:49;;;;;;;69.97;46.70;;;10.10;83.10;;;;;;5146871;28;20463;-30
2022/01/09 09:35:20;;;;;;;89.80;58.70;;;10.50;82.10;;;;;;5145894;28;20386;-29
2022/01/09 09:37:51;;;;;;;79.87;51.43;;;10.70;81.30;;;;;;5145773;28;20051;-30
2022/01/09 09:40:22;;;;;;;75.37;52.10;;;10.90;81.00;;;;;;5146852;28;20452;-31
2022/01/09 09:42:53;;;;;;;77.30;52.97;;;11.10;81.00;;;;;;5146480;28;20090;-31
2022/01/09 09:45:26;;;;;;;123.05;76.25;;;11.30;80.00;;;;;;5145608;28;20130;-29
2022/01/09 09:47:57;;;;;;;84.83;55.20;;;11.40;79.70;;;;;;5145299;28;20065;-30
2022/01/09 09:50:28;;;;;;;97.53;63.00;;;11.50;79.60;;;;;;5128881;28;20054;-29
2022/01/09 09:53:01;;;;;;;91.77;59.07;;;11.60;79.50;;;;;;5145428;28;20051;-30
2022/01/09 09:55:32;;;;;;;93.22;60.15;;;11.70;79.20;;;;;;5146127;28;20087;-30
2022/01/09 09:58:03;;;;;;;107.70;66.17;;;11.70;79.00;;;;;;5146354;28;20051;-28
2022/01/09 10:00:35;;;;;;;124.27;71.47;;;11.80;79.10;;;;;;5145246;28;20053;-29
2022/01/09 10:03:07;;;;;;;105.33;63.10;;;11.80;78.90;;;;;;5146557;28;20434;-28
2022/01/09 10:05:38;;;;;;;165.90;93.30;;;11.90;78.80;;;;;;5146050;28;20090;-29
2022/01/09 10:08:11;;;;;;;197.47;111.50;;;11.90;78.70;;;;;;5145017;28;20159;-29
2022/01/09 10:10:42;;;;;;;209.85;127.03;;;12.00;78.70;;;;;;5146310;28;20540;-30
2022/01/09 10:13:19;;;;;;;172.80;105.87;;;12.00;78.60;;;;;;5144742;28;20080;-30
2022/01/09 10:15:51;;;;;;;106.80;68.20;;;12.00;78.60;;;;;;5145243;28;20140;-30
2022/01/09 10:18:39;;;;;;;122.80;77.10;;;12.10;78.60;;;;;;5145022;28;20480;-30
2022/01/09 10:21:19;;;;;;;142.93;102.40;;;12.10;78.40;;;;;;5146328;28;20046;-29
2022/01/09 10:24:04;;;;;;;103.23;78.60;;;12.10;78.40;;;;;;5145260;28;20154;-29
2022/01/09 10:26:39;;;;;;;149.27;95.50;;;12.20;78.50;;;;;;5144994;28;20054;-29
2022/01/09 10:29:10;;;;;;;144.67;90.33;;;12.20;78.40;;;;;;5144960;28;20062;-30
2022/01/09 10:31:45;;;;;;;77.53;52.60;;;12.20;78.40;;;;;;5146734;28;20535;-30
2022/01/09 10:34:17;;;;;;;85.47;59.47;;;12.20;78.50;;;;;;5144917;28;20122;-29
2022/01/09 10:36:51;;;;;;;70.73;52.13;;;12.20;78.50;;;;;;5145997;28;20138;-29
2022/01/09 10:39:22;;;;;;;97.60;64.93;;;12.20;78.50;;;;;;5145099;28;20459;-28
2022/01/09 10:41:58;;;;;;;99.63;67.90;;;12.30;78.50;;;;;;5144884;28;20062;-29
2022/01/09 10:44:38;;;;;;;89.30;62.27;;;12.30;78.60;;;;;;5145981;28;20043;-30
2022/01/09 10:47:12;;;;;;;81.57;59.50;;;12.40;78.70;;;;;;5144897;28;20492;-28
2022/01/09 11:01:33;;;;;;;74.85;60.17;;;12.40;78.30;;;;;;5145505;28;20137;-29
2022/01/09 11:04:06;;;;;;;73.80;55.27;;;12.50;78.50;;;;;;5149424;28;20046;-30
2022/01/09 11:06:43;;;;;;;67.37;47.57;;;12.50;78.40;;;;;;5148015;28;20078;-29
2022/01/09 11:09:14;;;;;;;67.00;49.23;;;12.50;78.40;;;;;;5148459;28;20047;-29
2022/01/09 11:11:47;;;;;;;59.97;45.93;;;12.50;78.30;;;;;;5132003;28;20050;-30
2022/01/09 11:14:20;;;;;;;53.78;41.72;;;12.50;78.50;;;;;;5132275;28;20412;-29
2022/01/09 11:16:51;;;;;;;61.60;44.75;;;12.60;78.40;;;;;;5147938;28;20074;-31
2022/01/09 11:19:26;;;;;;;63.37;46.17;;;12.60;78.40;;;;;;5147834;28;20081;-29
2022/01/09 11:21:59;;;;;;;60.20;42.13;;;12.60;78.50;;;;;;5147982;28;20054;-30
2022/01/09 11:25:25;;;;;;;52.97;40.93;;;12.60;78.60;;;;;;5147872;28;20042;-29
2022/01/09 11:28:05;;;;;;;61.67;42.03;;;12.60;78.50;;;;;;5106959;29;20414;-29
2022/01/09 11:31:02;;;;;;;68.10;47.87;;;12.60;78.50;;;;;;5092204;29;20056;-30
2022/01/09 11:33:51;;;;;;;53.20;39.10;;;12.60;78.60;;;;;;5087263;29;20111;-28
2022/01/09 11:36:25;;;;;;;55.73;39.37;;;12.60;78.60;;;;;;5087317;29;20056;-28
2022/01/09 11:39:11;;;;;;;49.43;38.23;;;12.60;78.50;;;;;;5087208;29;20154;-28
2022/01/09 11:41:44;;;;;;;51.63;38.97;;;12.60;78.40;;;;;;5087135;29;20052;-30
2022/01/09 11:44:15;;;;;;;53.57;39.53;;;12.60;78.30;;;;;;5087139;29;20064;-31
2022/01/09 11:46:55;;;;;;;55.33;43.07;;;12.60;78.30;;;;;;5103058;29;20180;-30
2022/01/09 11:49:30;;;;;;;50.90;37.47;;;12.60;78.40;;;;;;5102574;29;20104;-28
2022/01/09 11:52:01;;;;;;;48.63;38.40;;;12.60;78.50;;;;;;5086814;29;20056;-29
2022/01/09 11:54:52;;;;;;;51.87;41.10;;;12.60;78.30;;;;;;5086767;29;20152;-29
2022/01/09 11:57:38;;;;;;;53.30;38.53;;;12.60;78.40;;;;;;5071272;29;20082;-29
2022/01/09 12:00:28;;;;;;;50.30;36.70;;;12.60;78.40;;;;;;5086734;29;20047;-30
2022/01/09 12:03:00;;;;;;;48.77;36.13;;;12.60;78.60;;;;;;5086727;29;20057;-31
2022/01/09 12:05:52;;;;;;;50.70;38.13;;;12.60;78.60;;;;;;5086490;29;20052;-31
2022/01/09 12:08:23;;;;;;;47.80;35.77;;;12.60;78.70;;;;;;5073282;29;20084;-29
2022/01/09 12:10:54;;;;;;;51.47;37.20;;;12.60;78.70;;;;;;5132100;28;20051;-30
2022/01/09 12:13:41;;;;;;;51.13;37.83;;;12.60;78.90;;;;;;5147225;28;20070;-28
2022/01/09 12:16:45;;;;;;;50.03;36.00;;;12.60;78.60;;;;;;5146729;28;20049;-30
2022/01/09 12:19:53;;;;;;;46.92;35.88;;;12.60;78.70;;;;;;5147198;28;20053;-30
2022/01/09 12:22:49;;;;;;;52.90;36.63;;;12.60;78.70;;;;;;5148249;28;20047;-30
2022/01/09 12:25:23;;;;;;;58.17;45.33;;;12.50;78.60;;;;;;5147843;28;20051;-29
2022/01/09 12:28:30;;;;;;;56.37;42.93;;;12.60;78.80;;;;;;5148075;28;20051;-29
2022/01/09 12:31:01;;;;;;;57.63;43.00;;;12.60;78.60;;;;;;5055683;29;20052;-30
2022/01/09 12:33:32;;;;;;;58.10;43.10;;;12.60;78.30;;;;;;5066613;29;20071;-30
2022/01/09 12:36:13;;;;;;;52.93;39.77;;;12.70;78.30;;;;;;5066596;29;20056;-28
2022/01/09 12:38:50;;;;;;;47.20;36.83;;;12.70;78.30;;;;;;5036811;29;20785;-30
2022/01/09 12:41:27;;;;;;;50.23;38.73;;;12.60;78.30;;;;;;5051295;29;20075;-29
2022/01/09 12:44:00;;;;;;;47.53;35.23;;;12.70;78.60;;;;;;5051143;29;20483;-29
2022/01/09 12:46:33;;;;;;;53.90;38.33;;;12.70;78.50;;;;;;5066748;29;20423;-30
2022/01/09 12:49:07;;;;;;;50.78;35.47;;;12.70;78.40;;;;;;5066456;29;20113;-30
2022/01/09 12:51:44;;;;;;;93.13;72.50;;;12.70;78.50;;;;;;5051161;29;20407;-29
2022/01/09 12:54:15;;;;;;;199.03;141.00;;;12.70;78.40;;;;;;5066294;29;20091;-30
2022/01/09 12:56:46;;;;;;;397.03;290.67;;;12.70;78.40;;;;;;5066087;29;20064;-29
2022/01/09 13:06:35;;;;;;;133.70;101.50;;;12.70;78.30;;;;;;5146707;28;19933;-30
2022/01/09 13:09:15;;;;;;;139.30;117.03;;;12.70;78.40;;;;;;5146571;28;20101;-30
2022/01/09 13:12:19;;;;;;;70.57;52.20;;;12.80;78.50;;;;;;5146943;28;20115;-29
2022/01/09 13:14:50;;;;;;;63.63;48.30;;;12.80;78.00;;;;;;5105003;29;20067;-28
2022/01/09 13:17:22;;;;;;;55.47;39.67;;;12.80;78.10;;;;;;5089765;29;20051;-30